createdAt,value
2023-02-08T00:00:44.263Z,103721.50
2023-02-08T00:03:11.321Z,103719.84
2023-02-08T00:05:39.389Z,103719.03
2023-02-08T00:08:06.095Z,103718.16
2023-02-08T00:10:32.797Z,103713.09
2023-02-08T00:12:59.598Z,103712.25
2023-02-08T00:15:26.275Z,103703.81
2023-02-08T00:17:56.284Z,103706.34
2023-02-08T00:20:23.008Z,103710.63
2023-02-08T00:22:50.788Z,103708.06
2023-02-08T00:25:18.734Z,103712.28
2023-02-08T00:27:45.532Z,103702.97
2023-02-08T00:30:12.442Z,103702.97
2023-02-08T00:32:39.130Z,103702.13
2023-02-08T00:35:06.012Z,103702.97
2023-02-08T00:37:32.655Z,103691.13
2023-02-08T00:40:01.574Z,103696.22
2023-02-08T00:42:30.312Z,103703.00
2023-02-08T00:44:57.184Z,103703.88
2023-02-08T00:47:24.923Z,103702.19
2023-02-08T00:49:51.863Z,103700.44
2023-02-08T00:52:19.535Z,103708.09
2023-02-08T00:54:46.959Z,103713.22
2023-02-08T00:57:14.078Z,103710.66
2023-02-08T00:59:41.001Z,103710.69
2023-02-08T01:02:07.828Z,103697.13
2023-02-08T01:04:34.579Z,103694.63
2023-02-08T01:07:01.156Z,103695.53
2023-02-08T01:09:27.722Z,103689.63
2023-02-08T01:11:54.339Z,103688.78
2023-02-08T01:14:21.145Z,103693.00
2023-02-08T01:16:47.923Z,103687.09
2023-02-08T01:19:14.781Z,103692.16
2023-02-08T01:21:42.478Z,103693.91
2023-02-08T01:24:09.594Z,103685.44
2023-02-08T01:26:37.068Z,103686.28
2023-02-08T01:29:04.913Z,103691.38
2023-02-08T01:31:34.842Z,103687.16
2023-02-08T01:34:03.030Z,103681.25
2023-02-08T01:36:31.069Z,103678.69
2023-02-08T01:38:58.423Z,103689.72
2023-02-08T01:41:34.487Z,103693.13
2023-02-08T01:44:29.437Z,103690.59
2023-02-08T01:46:56.200Z,103691.44
2023-02-08T01:49:30.359Z,103684.69
2023-02-08T01:52:03.237Z,103688.09
2023-02-08T01:54:38.815Z,103688.09
2023-02-08T01:57:05.633Z,103683.03
2023-02-08T01:59:46.753Z,103672.03
2023-02-08T02:02:19.767Z,103675.41
2023-02-08T02:04:48.119Z,103672.00
2023-02-08T02:07:16.374Z,103674.53
2023-02-08T02:09:45.851Z,103673.69
2023-02-08T02:12:13.911Z,103674.53
2023-02-08T02:14:41.850Z,103672.88
2023-02-08T02:17:08.562Z,103675.47
2023-02-08T02:20:01.724Z,103669.50
2023-02-08T02:22:31.605Z,103664.47
2023-02-08T02:25:42.977Z,103668.72
2023-02-08T02:28:30.165Z,103661.94
2023-02-08T02:31:15.044Z,103665.34
2023-02-08T02:34:02.764Z,103667.88
2023-02-08T02:36:47.563Z,103661.97
2023-02-08T02:39:29.379Z,103658.56
2023-02-08T02:42:18.467Z,103661.94
2023-02-08T02:44:55.063Z,103662.78
2023-02-08T02:47:33.847Z,103662.81
2023-02-08T02:50:19.573Z,103657.75
2023-02-08T02:52:57.368Z,103654.41
2023-02-08T02:55:26.164Z,103671.31
2023-02-08T02:57:55.252Z,103664.53
2023-02-08T03:00:26.505Z,103662.84
2023-02-08T03:02:55.642Z,103666.28
2023-02-08T03:05:22.431Z,103659.50
2023-02-08T03:08:04.132Z,103661.19
2023-02-08T03:10:55.332Z,103654.44
2023-02-08T03:13:40.538Z,103652.75
2023-02-08T03:16:33.309Z,103657.00
2023-02-08T03:19:18.146Z,103662.97
2023-02-08T03:21:54.045Z,103662.13
2023-02-08T03:24:23.418Z,103659.59
2023-02-08T03:27:18.956Z,103664.72
2023-02-08T03:30:14.206Z,103657.09
2023-02-08T03:32:52.530Z,103657.94
2023-02-08T03:35:25.295Z,103652.91
2023-02-08T03:38:16.031Z,103656.28
2023-02-08T03:40:53.686Z,103660.50
2023-02-08T03:43:52.581Z,103663.09
2023-02-08T03:46:31.021Z,103664.78
2023-02-08T03:49:05.296Z,103663.91
2023-02-08T03:51:34.273Z,103666.47
2023-02-08T03:54:05.067Z,103674.94
2023-02-08T03:56:41.569Z,103675.78
2023-02-08T03:59:24.083Z,103671.56
2023-02-08T04:02:02.754Z,103664.81
2023-02-08T04:04:35.021Z,103670.75
2023-02-08T04:07:02.169Z,103675.81
2023-02-08T04:09:28.794Z,103674.19
2023-02-08T04:11:55.384Z,103680.09
2023-02-08T04:14:22.025Z,103666.56
2023-02-08T04:16:48.709Z,103680.09
2023-02-08T04:19:15.311Z,103688.53
2023-02-08T04:21:41.899Z,103683.44
2023-02-08T04:24:08.737Z,103684.31
2023-02-08T04:26:35.840Z,103686.03
2023-02-08T04:29:02.427Z,103691.94
2023-02-08T04:31:29.167Z,103683.53
2023-02-08T04:33:55.834Z,103685.22
2023-02-08T04:36:22.510Z,103677.63
2023-02-08T04:38:49.384Z,103681.03
2023-02-08T04:41:15.957Z,103675.09
2023-02-08T04:43:42.476Z,103675.09
2023-02-08T04:46:09.113Z,103671.75
2023-02-08T04:48:53.276Z,103668.34
2023-02-08T04:51:19.916Z,103669.22
2023-02-08T04:53:46.541Z,103663.31
2023-02-08T04:56:13.176Z,103664.19
2023-02-08T04:58:41.873Z,103666.69
2023-02-08T05:01:10.784Z,103666.72
2023-02-08T05:03:37.583Z,103664.19
2023-02-08T05:06:04.496Z,103658.25
2023-02-08T05:08:31.160Z,103659.09
2023-02-08T05:10:57.863Z,103649.78
2023-02-08T05:13:24.661Z,103653.16
2023-02-08T05:15:51.245Z,103645.53
2023-02-08T05:18:17.851Z,103653.13
2023-02-08T05:20:45.096Z,103649.75
2023-02-08T05:23:12.115Z,103646.34
2023-02-08T05:25:39.622Z,103643.84
2023-02-08T05:28:06.247Z,103642.16
2023-02-08T05:30:32.845Z,103642.19
2023-02-08T05:32:59.459Z,103642.19
2023-02-08T05:35:26.014Z,103648.94
2023-02-08T05:37:52.578Z,103651.50
2023-02-08T05:40:19.267Z,103638.81
2023-02-08T05:42:47.589Z,103637.97
2023-02-08T05:45:14.532Z,103633.72
2023-02-08T05:47:50.748Z,103635.44
2023-02-08T05:50:17.427Z,103632.88
2023-02-08T05:52:44.082Z,103627.00
2023-02-08T05:55:10.766Z,103627.84
2023-02-08T05:57:37.665Z,103639.69
2023-02-08T06:00:06.149Z,103632.91
2023-02-08T06:02:32.999Z,103641.38
2023-02-08T06:04:59.905Z,103643.06
2023-02-08T06:07:29.034Z,103649.00
2023-02-08T06:09:55.930Z,103644.72
2023-02-08T06:12:22.620Z,103640.50
2023-02-08T06:14:49.253Z,103646.41
2023-02-08T06:17:15.927Z,103651.50
2023-02-08T06:19:42.684Z,103645.59
2023-02-08T06:22:09.213Z,103649.81
2023-02-08T06:24:35.769Z,103643.03
2023-02-08T06:27:02.426Z,103643.88
2023-02-08T06:29:28.977Z,103637.94
2023-02-08T06:31:55.628Z,103635.41
2023-02-08T06:34:22.421Z,103627.78
2023-02-08T06:36:48.958Z,103631.19
2023-02-08T06:39:15.509Z,103627.81
2023-02-08T06:41:43.071Z,103632.84
2023-02-08T06:44:09.908Z,103628.59
2023-02-08T06:46:36.622Z,103630.28
2023-02-08T06:49:03.319Z,103632.00
2023-02-08T06:51:29.943Z,103631.13
2023-02-08T06:53:56.582Z,103626.03
2023-02-08T06:56:23.232Z,103635.31
2023-02-08T06:58:49.916Z,103636.16
2023-02-08T07:01:16.641Z,103642.94
2023-02-08T07:03:43.221Z,103648.00
2023-02-08T07:06:18.265Z,103640.41
2023-02-08T07:08:45.822Z,103640.41
2023-02-08T07:11:19.665Z,103640.38
2023-02-08T07:13:47.767Z,103641.22
2023-02-08T07:16:14.887Z,103637.81
2023-02-08T07:18:41.486Z,103633.56
2023-02-08T07:21:08.537Z,103634.41
2023-02-08T07:23:35.125Z,103639.50
2023-02-08T07:26:07.491Z,103625.97
2023-02-08T07:28:34.457Z,103631.88
2023-02-08T07:31:06.056Z,103630.13
2023-02-08T07:33:32.698Z,103624.19
2023-02-08T07:35:59.318Z,103621.59
2023-02-08T07:38:26.015Z,103620.75
2023-02-08T07:40:52.687Z,103630.00
2023-02-08T07:43:19.334Z,103622.38
2023-02-08T07:45:45.956Z,103629.94
2023-02-08T07:48:12.515Z,103629.09
2023-02-08T07:50:39.267Z,103642.59
2023-02-08T07:53:06.047Z,103634.94
2023-02-08T07:55:32.811Z,103634.91
2023-02-08T07:57:59.393Z,103628.13
2023-02-08T08:00:27.070Z,103628.94
2023-02-08T08:02:54.363Z,103620.41
2023-02-08T08:05:21.749Z,103616.88
2023-02-08T08:07:48.397Z,103616.75
2023-02-08T08:10:14.961Z,103608.09
2023-02-08T08:12:42.599Z,103611.34
2023-02-08T08:15:09.431Z,103603.53
2023-02-08T08:17:36.087Z,103605.13
2023-02-08T08:20:03.036Z,103607.59
2023-02-08T08:22:29.615Z,103605.84
2023-02-08T08:24:56.223Z,103603.22
2023-02-08T08:27:22.837Z,103600.63
2023-02-08T08:29:49.501Z,103599.72
2023-02-08T08:32:16.108Z,103593.72
2023-02-08T08:34:42.661Z,103600.47
2023-02-08T08:37:09.524Z,103591.06
2023-02-08T08:39:37.243Z,103576.59
2023-02-08T08:42:04.438Z,103573.09
2023-02-08T08:44:31.659Z,103582.34
2023-02-08T08:46:59.474Z,103586.50
2023-02-08T08:49:27.316Z,103582.19
2023-02-08T08:51:54.523Z,103578.69
2023-02-08T08:54:22.098Z,103589.66
2023-02-08T08:56:48.748Z,103591.22
2023-02-08T08:59:16.432Z,103589.41
2023-02-08T09:01:43.200Z,103588.41
2023-02-08T09:04:10.871Z,103591.63
2023-02-08T09:06:37.776Z,103584.69
2023-02-08T09:09:04.893Z,103590.47
2023-02-08T09:11:33.522Z,103597.94
2023-02-08T09:14:04.688Z,103602.91
2023-02-08T09:16:32.643Z,103602.75
2023-02-08T09:19:03.737Z,103606.81
2023-02-08T09:21:31.679Z,103614.25
2023-02-08T09:23:58.447Z,103608.94
2023-02-08T09:26:26.621Z,103605.31
2023-02-08T09:28:53.901Z,103607.66
2023-02-08T09:31:21.996Z,103597.25
2023-02-08T09:33:50.080Z,103604.72
2023-02-08T09:36:18.027Z,103601.13
2023-02-08T09:38:45.518Z,103605.19
2023-02-08T09:41:42.631Z,103607.63
2023-02-08T09:44:14.996Z,103613.31
2023-02-08T09:46:50.913Z,103616.59
2023-02-08T09:49:24.452Z,103619.81
2023-02-08T09:52:10.115Z,103617.09
2023-02-08T09:54:41.525Z,103620.19
2023-02-08T09:57:16.706Z,103622.59
2023-02-08T09:59:54.516Z,103614.75
2023-02-08T10:02:31.223Z,103614.50
2023-02-08T10:05:00.521Z,103611.72
2023-02-08T10:07:28.513Z,103612.31
2023-02-08T10:09:57.860Z,103613.75
2023-02-08T10:12:49.227Z,103603.13
2023-02-08T10:15:34.464Z,103611.41
2023-02-08T10:18:19.815Z,103617.91
2023-02-08T10:21:14.166Z,103610.88
2023-02-08T10:23:52.165Z,103609.81
2023-02-08T10:26:38.332Z,103610.34
2023-02-08T10:29:20.781Z,103615.28
2023-02-08T10:32:35.830Z,103622.59
2023-02-08T10:35:13.569Z,103613.63
2023-02-08T10:37:44.254Z,103618.34
2023-02-08T10:40:31.580Z,103619.69
2023-02-08T10:43:28.873Z,103614.41
2023-02-08T10:46:04.590Z,103604.81
2023-02-08T10:48:46.575Z,103601.28
2023-02-08T10:51:20.384Z,103601.97
2023-02-08T10:53:49.149Z,103593.28
2023-02-08T10:56:36.988Z,103598.91
2023-02-08T10:59:38.772Z,103601.25
2023-02-08T11:02:25.593Z,103601.06
2023-02-08T11:05:07.389Z,103602.56
2023-02-08T11:07:36.608Z,103603.34
2023-02-08T11:10:24.021Z,103604.03
2023-02-08T11:12:57.590Z,103597.91
2023-02-08T11:15:36.585Z,103596.97
2023-02-08T11:18:04.529Z,103595.22
2023-02-08T11:20:40.360Z,103591.56
2023-02-08T11:23:23.438Z,103579.31
2023-02-08T11:25:50.654Z,103579.97
2023-02-08T11:28:24.696Z,103573.00
2023-02-08T11:31:00.935Z,103575.31
2023-02-08T11:33:29.639Z,103567.31
2023-02-08T11:36:02.531Z,103568.84
2023-02-08T11:38:31.600Z,103572.13
2023-02-08T11:41:02.094Z,103567.72
2023-02-08T11:43:35.095Z,103566.00
2023-02-08T11:46:04.915Z,103564.88
2023-02-08T11:48:39.545Z,103563.06
2023-02-08T11:51:06.629Z,103557.00
2023-02-08T11:53:39.753Z,103545.50
2023-02-08T11:56:06.558Z,103545.22
2023-02-08T11:58:33.235Z,103545.81
2023-02-08T12:01:04.908Z,103550.78
2023-02-08T12:03:37.662Z,103543.78
2023-02-08T12:06:13.371Z,103537.63
2023-02-08T12:09:04.060Z,103534.16
2023-02-08T12:11:44.733Z,103535.69
2023-02-08T12:14:37.370Z,103529.50
2023-02-08T12:17:34.052Z,103519.13
2023-02-08T12:20:12.606Z,103511.19
2023-02-08T12:22:43.197Z,103509.44
2023-02-08T12:25:30.049Z,103509.38
2023-02-08T12:28:16.117Z,103498.91
2023-02-08T12:31:07.070Z,103498.75
2023-02-08T12:34:10.955Z,103501.41
2023-02-08T12:36:41.486Z,103490.81
2023-02-08T12:39:57.693Z,103489.13
2023-02-08T12:42:41.413Z,103478.53
2023-02-08T12:45:47.738Z,103469.00
2023-02-08T12:48:41.671Z,103460.25
2023-02-08T12:51:36.112Z,103462.50
2023-02-08T12:54:12.841Z,103458.88
2023-02-08T12:56:53.590Z,103455.41
2023-02-08T12:59:47.237Z,103440.75
2023-02-08T13:02:21.968Z,103435.59
2023-02-08T13:04:54.083Z,103425.38
2023-02-08T13:07:26.252Z,103431.50
2023-02-08T13:10:04.741Z,103423.50
2023-02-08T13:12:36.102Z,103420.06
2023-02-08T13:15:24.731Z,103416.63
2023-02-08T13:18:13.927Z,103415.66
2023-02-08T13:20:46.711Z,103416.31
2023-02-08T13:23:52.140Z,103410.41
2023-02-08T13:26:26.480Z,103406.94
2023-02-08T13:29:01.066Z,103411.25
2023-02-08T13:31:40.365Z,103405.91
2023-02-08T13:34:12.634Z,103398.06
2023-02-08T13:36:59.546Z,103387.13
2023-02-08T13:39:44.228Z,103393.91
2023-02-08T13:42:27.843Z,103396.50
2023-02-08T13:44:57.482Z,103388.78
2023-02-08T13:47:26.559Z,103378.28
2023-02-08T13:49:57.201Z,103384.34
2023-02-08T13:52:46.911Z,103382.41
2023-02-08T13:55:41.378Z,103375.34
2023-02-08T13:58:13.943Z,103369.38
2023-02-08T14:00:56.525Z,103366.75
2023-02-08T14:03:30.733Z,103357.97
2023-02-08T14:06:06.388Z,103363.19
2023-02-08T14:08:38.914Z,103351.97
2023-02-08T14:11:20.258Z,103349.28
2023-02-08T14:13:55.191Z,103341.69
2023-02-08T14:16:43.320Z,103340.91
2023-02-08T14:19:15.836Z,103333.06
2023-02-08T14:22:15.386Z,103336.41
2023-02-08T14:24:49.777Z,103330.50
2023-02-08T14:27:28.426Z,103326.22
2023-02-08T14:30:16.997Z,103318.50
2023-02-08T14:33:12.601Z,103318.44
2023-02-08T14:35:43.253Z,103316.00
2023-02-08T14:38:19.107Z,103326.53
2023-02-08T14:41:02.917Z,103318.03
2023-02-08T14:43:37.414Z,103322.34
2023-02-08T14:46:37.909Z,103319.06
2023-02-08T14:49:19.245Z,103311.34
2023-02-08T14:52:11.892Z,103310.75
2023-02-08T14:54:50.490Z,103310.88
2023-02-08T14:57:31.791Z,103307.66
2023-02-08T15:00:05.541Z,103299.94
2023-02-08T15:02:34.230Z,103302.75
2023-02-08T15:05:02.910Z,103297.81
2023-02-08T15:07:44.901Z,103292.66
2023-02-08T15:10:17.176Z,103296.28
2023-02-08T15:12:51.589Z,103290.41
2023-02-08T15:15:39.560Z,103282.69
2023-02-08T15:18:17.751Z,103284.59
2023-02-08T15:20:46.760Z,103276.16
2023-02-08T15:23:23.424Z,103272.91
2023-02-08T15:26:20.494Z,103268.88
2023-02-08T15:28:47.055Z,103262.19
2023-02-08T15:31:20.540Z,103256.50
2023-02-08T15:33:47.760Z,103262.72
2023-02-08T15:36:25.553Z,103253.50
2023-02-08T15:38:52.348Z,103245.78
2023-02-08T15:41:28.987Z,103249.28
2023-02-08T15:44:24.900Z,103239.78
2023-02-08T15:49:31.434Z,103233.22
2023-02-08T15:51:59.014Z,103226.53
2023-02-08T15:54:26.135Z,103218.13
2023-02-08T15:56:58.578Z,103213.25
2023-02-08T15:59:29.403Z,103213.50
2023-02-08T16:01:58.423Z,103212.88
2023-02-08T16:04:25.884Z,103207.13
2023-02-08T16:06:55.784Z,103207.25
2023-02-08T16:09:27.292Z,103198.91
2023-02-08T16:11:58.256Z,103207.72
2023-02-08T16:14:29.390Z,103202.00
2023-02-08T16:16:58.501Z,103198.09
2023-02-08T16:19:50.534Z,103198.34
2023-02-08T16:22:32.184Z,103202.84
2023-02-08T16:25:29.925Z,103201.38
2023-02-08T16:27:56.613Z,103199.75
2023-02-08T16:30:24.254Z,103194.78
2023-02-08T16:32:51.059Z,103194.03
2023-02-08T16:35:29.647Z,103199.44
2023-02-08T16:38:00.741Z,103204.69
2023-02-08T16:40:49.889Z,103204.88
2023-02-08T16:43:30.220Z,103198.28
2023-02-08T16:46:11.936Z,103189.16
2023-02-08T16:48:41.709Z,103192.81
2023-02-08T16:51:17.356Z,103182.84
2023-02-08T16:53:46.923Z,103175.47
2023-02-08T16:56:13.802Z,103179.19
2023-02-08T16:58:40.783Z,103170.81
2023-02-08T17:01:12.221Z,103170.22
2023-02-08T17:03:38.904Z,103169.56
2023-02-08T17:06:06.576Z,103171.41
2023-02-08T17:08:35.853Z,103171.47
2023-02-08T17:11:02.649Z,103162.25
2023-02-08T17:13:30.363Z,103164.97
2023-02-08T17:15:58.749Z,103164.31
2023-02-08T17:18:25.615Z,103168.75
2023-02-08T17:20:57.881Z,103161.22
2023-02-08T17:23:24.633Z,103159.59
2023-02-08T17:25:52.154Z,103155.53
2023-02-08T17:28:21.510Z,103152.28
2023-02-08T17:30:49.145Z,103156.72
2023-02-08T17:33:19.462Z,103156.06
2023-02-08T17:35:48.555Z,103162.19
2023-02-08T17:38:15.539Z,103159.06
2023-02-08T17:40:44.199Z,103150.00
2023-02-08T17:43:12.715Z,103157.06
2023-02-08T17:45:42.705Z,103148.81
2023-02-08T17:48:09.920Z,103147.34
2023-02-08T17:50:37.006Z,103142.38
2023-02-08T17:53:04.427Z,103140.78
2023-02-08T17:55:31.206Z,103134.06
2023-02-08T17:57:58.358Z,103135.03
2023-02-08T18:00:26.099Z,103130.06
2023-02-08T18:02:54.997Z,103130.19
2023-02-08T18:05:26.968Z,103126.22
2023-02-08T18:07:55.832Z,103124.75
2023-02-08T18:10:24.022Z,103127.47
2023-02-08T18:12:51.156Z,103129.28
2023-02-08T18:15:21.180Z,103130.91
2023-02-08T18:17:50.510Z,103125.88
2023-02-08T18:20:17.975Z,103127.63
2023-02-08T18:22:46.143Z,103123.47
2023-02-08T18:25:13.388Z,103120.25
2023-02-08T18:27:40.324Z,103117.84
2023-02-08T18:30:10.034Z,103118.06
2023-02-08T18:32:36.667Z,103116.50
2023-02-08T18:35:04.604Z,103113.19
2023-02-08T18:37:32.064Z,103109.84
2023-02-08T18:39:59.573Z,103115.03
2023-02-08T18:42:26.654Z,103104.09
2023-02-08T18:44:53.262Z,103101.69
2023-02-08T18:47:19.963Z,103099.19
2023-02-08T18:49:47.851Z,103095.97
2023-02-08T18:52:17.695Z,103097.75
2023-02-08T18:54:44.357Z,103098.75
2023-02-08T18:57:11.098Z,103097.13
2023-02-08T18:59:38.500Z,103098.13
2023-02-08T19:02:07.157Z,103095.63
2023-02-08T19:04:40.439Z,103096.56
2023-02-08T19:07:08.014Z,103100.88
2023-02-08T19:09:37.286Z,103095.00
2023-02-08T19:12:04.274Z,103096.78
2023-02-08T19:14:30.947Z,103101.19
2023-02-08T19:16:57.655Z,103087.59
2023-02-08T19:19:25.476Z,103084.31
2023-02-08T19:21:52.527Z,103089.56
2023-02-08T19:24:20.228Z,103083.03
2023-02-08T19:26:47.308Z,103086.44
2023-02-08T19:29:17.173Z,103083.16
2023-02-08T19:31:44.809Z,103082.38
2023-02-08T19:34:12.887Z,103078.22
2023-02-08T19:36:51.762Z,103077.44
2023-02-08T19:39:24.670Z,103083.47
2023-02-08T19:41:53.047Z,103078.50
2023-02-08T19:44:20.562Z,103076.00
2023-02-08T19:46:54.987Z,103075.31
2023-02-08T19:49:23.311Z,103083.91
2023-02-08T19:51:52.536Z,103078.94
2023-02-08T19:54:20.406Z,103085.84
2023-02-08T19:56:47.397Z,103083.31
2023-02-08T19:59:24.764Z,103086.91
2023-02-08T20:01:51.603Z,103091.25
2023-02-08T20:04:18.320Z,103090.47
2023-02-08T20:06:45.720Z,103091.38
2023-02-08T20:09:15.712Z,103086.41
2023-02-08T20:11:56.513Z,103083.94
2023-02-08T20:14:24.532Z,103076.34
2023-02-08T20:16:52.740Z,103073.88
2023-02-08T20:19:19.421Z,103075.75
2023-02-08T20:21:46.118Z,103086.81
2023-02-08T20:24:14.034Z,103086.03
2023-02-08T20:26:43.890Z,103091.91
2023-02-08T20:29:12.285Z,103094.53
2023-02-08T20:31:42.725Z,103093.81
2023-02-08T20:34:13.704Z,103084.56
2023-02-08T20:36:45.030Z,103085.50
2023-02-08T20:39:17.043Z,103086.47
2023-02-08T20:41:45.039Z,103087.38
2023-02-08T20:44:14.946Z,103087.53
2023-02-08T20:46:43.067Z,103083.31
2023-02-08T20:49:13.751Z,103082.53
2023-02-08T20:51:40.269Z,103085.16
2023-02-08T20:54:06.964Z,103086.91
2023-02-08T20:56:36.098Z,103074.28
2023-02-08T20:59:05.507Z,103072.66
2023-02-08T21:01:34.742Z,103071.84
2023-02-08T21:04:01.614Z,103083.81
2023-02-08T21:06:32.294Z,103072.00
2023-02-08T21:09:03.230Z,103075.56
2023-02-08T21:11:31.994Z,103070.53
2023-02-08T21:13:59.227Z,103063.78
2023-02-08T21:16:26.863Z,103063.78
2023-02-08T21:18:54.162Z,103062.97
2023-02-08T21:21:21.242Z,103061.28
2023-02-08T21:23:47.873Z,103068.09
2023-02-08T21:26:19.252Z,103067.25
2023-02-08T21:28:46.576Z,103062.16
2023-02-08T21:31:19.831Z,103068.91
2023-02-08T21:33:49.722Z,103073.94
2023-02-08T21:36:19.330Z,103065.38
2023-02-08T21:38:46.757Z,103064.47
2023-02-08T21:41:16.867Z,103058.47
2023-02-08T21:43:44.308Z,103049.94
2023-02-08T21:46:11.135Z,103052.44
2023-02-08T21:48:56.943Z,103054.13
2023-02-08T21:51:45.071Z,103047.34
2023-02-08T21:54:36.242Z,103052.38
2023-02-08T21:57:06.590Z,103051.34
2023-02-08T21:59:37.777Z,103053.78
2023-02-08T22:02:06.709Z,103047.75
2023-02-08T22:04:37.157Z,103046.09
2023-02-08T22:07:04.773Z,103051.22
2023-02-08T22:09:31.760Z,103039.38
2023-02-08T22:11:58.832Z,103040.16
2023-02-08T22:14:25.588Z,103027.41
2023-02-08T22:16:52.458Z,103022.97
2023-02-08T22:19:19.287Z,103012.63
2023-02-08T22:21:46.168Z,103015.09
2023-02-08T22:24:12.841Z,103018.38
2023-02-08T22:26:39.600Z,103015.91
2023-02-08T22:29:06.150Z,103016.81
2023-02-08T22:31:33.032Z,103012.56
2023-02-08T22:34:00.964Z,103010.91
2023-02-08T22:36:27.634Z,103015.06
2023-02-08T22:38:54.509Z,103005.69
2023-02-08T22:41:21.481Z,102992.00
2023-02-08T22:43:48.638Z,102990.31
2023-02-08T22:46:15.353Z,102995.28
2023-02-08T22:48:42.270Z,102996.91
2023-02-08T22:51:12.594Z,102994.22
2023-02-08T22:53:39.195Z,102983.03
2023-02-08T22:56:07.141Z,102984.53
2023-02-08T22:58:33.880Z,102983.69
2023-02-08T23:01:00.477Z,102979.34
2023-02-08T23:03:27.696Z,102978.50
2023-02-08T23:05:54.371Z,102979.19
2023-02-08T23:08:21.930Z,102973.94
2023-02-08T23:10:48.665Z,102974.75
2023-02-08T23:13:15.372Z,102974.03
2023-02-08T23:15:44.293Z,102969.75
2023-02-08T23:18:12.044Z,102983.41
2023-02-08T23:20:41.535Z,102969.91
2023-02-08T23:23:08.524Z,102977.59
2023-02-08T23:25:37.945Z,102972.53
2023-02-08T23:28:04.794Z,102974.25
2023-02-08T23:30:31.658Z,102964.88
2023-02-08T23:32:58.266Z,102972.53
2023-02-08T23:35:24.917Z,102965.81
2023-02-08T23:37:51.583Z,102965.94
2023-02-08T23:40:18.482Z,102965.16
2023-02-08T23:42:45.086Z,102963.34
2023-02-08T23:45:11.966Z,102960.78
2023-02-08T23:47:39.651Z,102957.38
2023-02-08T23:50:07.444Z,102963.25
2023-02-08T23:52:35.379Z,102956.44
2023-02-08T23:55:03.652Z,102953.91
2023-02-08T23:57:37.563Z,102952.25
